Time;durP1;ratioP1;P1;durP2;ratioP2;P2;SDS_P1;SDS_P2;PMS_P1;PMS_P2;Temp;Humidity;BMP_temperature;BMP_pressure;BME280_temperature;BME280_humidity;BME280_pressure;Samples;Min_cycle;Max_cycle;Signal;HPM_P1;HPM_P2
2023/07/22 00:04:03;;;;;;;16.63;5.20;;;;;;;;;;10331431;28;20277;-68
2023/07/22 00:09:03;;;;;;;12.15;5.10;;;;;;;;;;10336627;28;20032;-68
2023/07/22 00:14:06;;;;;;;13.90;5.18;;;;;;;;;;10331460;28;20018;-68
2023/07/22 00:19:07;;;;;;;15.52;6.70;;;;;;;;;;10295927;28;20038;-68
2023/07/22 00:24:08;;;;;;;23.48;5.75;;;;;;;;;;10295264;28;20033;-69
2023/07/22 00:29:08;;;;;;;13.38;5.47;;;;;;;;;;10295615;28;20119;-69
2023/07/22 00:34:09;;;;;;;10.80;5.68;;;;;;;;;;10295458;28;20310;-69
2023/07/22 00:39:09;;;;;;;13.63;5.47;;;;;;;;;;10319394;28;20054;-69
2023/07/22 00:44:12;;;;;;;13.18;5.45;;;;;;;;;;10323657;28;20359;-69
2023/07/22 00:49:14;;;;;;;13.23;5.32;;;;;;;;;;10295205;28;20027;-69
2023/07/22 00:54:15;;;;;;;14.07;6.30;;;;;;;;;;10305651;28;20025;-69
2023/07/22 00:59:16;;;;;;;13.73;5.40;;;;;;;;;;10335286;28;20081;-69
2023/07/22 01:04:19;;;;;;;10.70;6.43;;;;;;;;;;10311972;28;20094;-69
2023/07/22 01:09:19;;;;;;;10.95;6.03;;;;;;;;;;10312006;28;20026;-69
2023/07/22 01:14:19;;;;;;;24.48;5.95;;;;;;;;;;10335041;28;20019;-69
2023/07/22 01:19:19;;;;;;;10.88;5.90;;;;;;;;;;10334753;28;20026;-69
2023/07/22 01:24:21;;;;;;;13.77;6.10;;;;;;;;;;10306903;28;20019;-69
2023/07/22 01:29:21;;;;;;;11.18;5.57;;;;;;;;;;10294239;28;20027;-69
2023/07/22 01:34:22;;;;;;;14.57;6.05;;;;;;;;;;10297524;28;20046;-69
2023/07/22 01:39:22;;;;;;;13.55;5.35;;;;;;;;;;10300221;28;20057;-69
2023/07/22 01:44:22;;;;;;;7.40;4.85;;;;;;;;;;10300464;28;20035;-69
2023/07/22 01:49:24;;;;;;;14.43;5.05;;;;;;;;;;10301237;28;20030;-69
2023/07/22 01:54:24;;;;;;;10.73;5.03;;;;;;;;;;10301230;28;20018;-69
2023/07/22 01:59:24;;;;;;;12.95;4.60;;;;;;;;;;10301338;28;20027;-69
2023/07/22 02:04:25;;;;;;;8.48;5.05;;;;;;;;;;10300967;28;20023;-67
2023/07/22 02:09:25;;;;;;;7.13;4.68;;;;;;;;;;10305136;28;20030;-68
2023/07/22 02:14:25;;;;;;;14.85;5.25;;;;;;;;;;10340827;28;20223;-69
2023/07/22 02:19:26;;;;;;;9.10;4.85;;;;;;;;;;10340928;28;20018;-68
2023/07/22 02:24:27;;;;;;;11.02;5.38;;;;;;;;;;10321216;28;20022;-68
2023/07/22 02:29:27;;;;;;;11.98;5.50;;;;;;;;;;10322840;28;20065;-68
2023/07/22 02:34:28;;;;;;;11.93;5.65;;;;;;;;;;10340342;28;20089;-68
2023/07/22 02:39:28;;;;;;;11.38;5.38;;;;;;;;;;10339581;28;20046;-69
2023/07/22 02:44:28;;;;;;;8.50;4.93;;;;;;;;;;10339995;28;20358;-69
2023/07/22 02:49:28;;;;;;;8.90;5.33;;;;;;;;;;10318996;28;20234;-68
2023/07/22 02:54:29;;;;;;;9.85;5.53;;;;;;;;;;10299545;28;20023;-68
2023/07/22 02:59:29;;;;;;;14.82;5.38;;;;;;;;;;10328145;28;20321;-68
2023/07/22 03:04:29;;;;;;;9.60;4.90;;;;;;;;;;10299299;28;20128;-68
2023/07/22 03:09:29;;;;;;;9.13;5.47;;;;;;;;;;10299230;28;20397;-68
2023/07/22 03:14:36;;;;;;;11.25;5.65;;;;;;;;;;10298487;28;20011;-68
2023/07/22 03:19:36;;;;;;;14.07;5.47;;;;;;;;;;10303861;28;20050;-67
2023/07/22 03:24:36;;;;;;;13.15;5.95;;;;;;;;;;10337966;28;20287;-68
2023/07/22 03:29:37;;;;;;;12.88;5.72;;;;;;;;;;10336780;28;20216;-68
2023/07/22 03:34:37;;;;;;;13.25;5.70;;;;;;;;;;10338121;28;20026;-67
2023/07/22 03:39:37;;;;;;;13.20;5.95;;;;;;;;;;10337225;28;20046;-68
2023/07/22 03:44:38;;;;;;;13.00;6.35;;;;;;;;;;10337035;28;20312;-68
2023/07/22 03:49:38;;;;;;;16.48;7.00;;;;;;;;;;10336545;28;20029;-68
2023/07/22 03:54:38;;;;;;;13.60;6.63;;;;;;;;;;10336954;28;20314;-69
2023/07/22 03:59:39;;;;;;;14.83;6.50;;;;;;;;;;10332720;28;20026;-68
2023/07/22 04:04:39;;;;;;;17.97;6.47;;;;;;;;;;10296928;28;20026;-69
2023/07/22 04:09:41;;;;;;;16.33;7.15;;;;;;;;;;10336604;28;20050;-69
2023/07/22 04:14:41;;;;;;;14.93;6.35;;;;;;;;;;10300973;28;20325;-69
2023/07/22 04:19:42;;;;;;;12.33;6.17;;;;;;;;;;10306987;28;20097;-69
2023/07/22 04:24:43;;;;;;;15.68;6.53;;;;;;;;;;10329833;28;20098;-68
2023/07/22 04:29:43;;;;;;;21.88;6.40;;;;;;;;;;10296063;28;20190;-68
2023/07/22 04:34:43;;;;;;;20.85;7.00;;;;;;;;;;10333891;28;20334;-69
2023/07/22 04:39:47;;;;;;;11.23;6.53;;;;;;;;;;10336043;28;20054;-69
2023/07/22 04:44:48;;;;;;;11.38;5.95;;;;;;;;;;10335845;28;20034;-69
2023/07/22 04:49:48;;;;;;;24.10;7.32;;;;;;;;;;10340009;28;20023;-69
2023/07/22 04:54:49;;;;;;;15.43;7.20;;;;;;;;;;10334220;28;20231;-69
2023/07/22 04:59:49;;;;;;;13.80;6.72;;;;;;;;;;10335887;28;20093;-68
2023/07/22 05:04:49;;;;;;;12.73;5.88;;;;;;;;;;10335580;28;20199;-68
2023/07/22 05:09:51;;;;;;;11.65;6.75;;;;;;;;;;10339591;28;20034;-69
2023/07/22 05:14:51;;;;;;;15.20;6.78;;;;;;;;;;10343759;28;20031;-69
2023/07/22 05:19:52;;;;;;;14.80;7.43;;;;;;;;;;10343381;28;20240;-68
2023/07/22 05:24:52;;;;;;;19.92;7.68;;;;;;;;;;10343036;28;20292;-69
2023/07/22 05:29:52;;;;;;;16.92;7.30;;;;;;;;;;10342567;28;20022;-69
2023/07/22 05:34:52;;;;;;;18.95;7.00;;;;;;;;;;10327218;28;20349;-69
2023/07/22 05:39:53;;;;;;;11.93;6.57;;;;;;;;;;10303057;28;20232;-68
2023/07/22 05:44:57;;;;;;;12.88;6.43;;;;;;;;;;10326556;28;20320;-69
2023/07/22 05:49:57;;;;;;;10.48;6.32;;;;;;;;;;10307002;28;20035;-69
2023/07/22 05:54:58;;;;;;;13.85;6.63;;;;;;;;;;10298506;28;20026;-68
2023/07/22 05:59:58;;;;;;;12.80;6.75;;;;;;;;;;10297063;28;20027;-69
2023/07/22 06:04:58;;;;;;;10.30;6.77;;;;;;;;;;10319250;28;20033;-69
2023/07/22 06:09:58;;;;;;;19.38;7.32;;;;;;;;;;10338415;28;20220;-68
2023/07/22 06:14:59;;;;;;;10.80;6.20;;;;;;;;;;10337984;28;20046;-68
2023/07/22 06:19:59;;;;;;;12.57;6.20;;;;;;;;;;10338082;28;20232;-68
2023/07/22 06:24:59;;;;;;;11.20;6.00;;;;;;;;;;10340859;28;20396;-69
2023/07/22 06:30:00;;;;;;;13.75;6.88;;;;;;;;;;10340429;28;20519;-69
2023/07/22 06:35:00;;;;;;;10.43;5.60;;;;;;;;;;10339869;28;20022;-68
2023/07/22 06:40:01;;;;;;;12.93;6.03;;;;;;;;;;10338116;28;20055;-69
2023/07/22 06:45:02;;;;;;;12.30;6.28;;;;;;;;;;10339749;28;20337;-68
2023/07/22 06:50:04;;;;;;;16.88;5.70;;;;;;;;;;10340492;28;20038;-69
2023/07/22 06:55:04;;;;;;;16.88;5.57;;;;;;;;;;10339779;28;20019;-69
2023/07/22 07:00:05;;;;;;;16.17;6.20;;;;;;;;;;10338311;28;20065;-69
2023/07/22 07:05:06;;;;;;;10.35;6.00;;;;;;;;;;10339237;28;20065;-69
2023/07/22 07:10:06;;;;;;;15.27;6.85;;;;;;;;;;10339182;28;20026;-69
2023/07/22 07:15:07;;;;;;;12.30;5.22;;;;;;;;;;10306094;28;20261;-69
2023/07/22 07:20:07;;;;;;;9.07;5.50;;;;;;;;;;10298307;28;20030;-68
2023/07/22 07:25:07;;;;;;;11.25;5.18;;;;;;;;;;10297928;28;20262;-68
2023/07/22 07:30:08;;;;;;;14.75;5.82;;;;;;;;;;10318079;28;20453;-68
2023/07/22 07:35:09;;;;;;;16.00;4.85;;;;;;;;;;10337850;28;20018;-68
2023/07/22 07:40:09;;;;;;;16.93;5.73;;;;;;;;;;10337756;28;20101;-69
2023/07/22 07:45:09;;;;;;;11.10;5.65;;;;;;;;;;10302449;28;20125;-69
2023/07/22 07:50:10;;;;;;;15.63;5.57;;;;;;;;;;10297465;28;20093;-69
2023/07/22 07:55:10;;;;;;;16.90;5.75;;;;;;;;;;10297286;28;20066;-70
2023/07/22 08:00:11;;;;;;;10.98;5.57;;;;;;;;;;10304582;28;20022;-69
2023/07/22 08:05:12;;;;;;;12.10;5.25;;;;;;;;;;10337131;28;20034;-69
2023/07/22 08:10:12;;;;;;;11.50;5.07;;;;;;;;;;10335439;28;20134;-69
2023/07/22 08:15:13;;;;;;;10.32;5.35;;;;;;;;;;10307166;28;20114;-69
2023/07/22 08:20:13;;;;;;;16.73;5.47;;;;;;;;;;10314419;28;20064;-69
2023/07/22 08:25:13;;;;;;;12.47;5.03;;;;;;;;;;10315675;28;20035;-69
2023/07/22 08:30:13;;;;;;;16.13;5.30;;;;;;;;;;10296177;28;20050;-69
2023/07/22 08:35:17;;;;;;;11.27;6.25;;;;;;;;;;10332983;28;20030;-69
2023/07/22 08:40:18;;;;;;;12.85;5.30;;;;;;;;;;10312752;28;20191;-69
2023/07/22 08:45:19;;;;;;;15.35;4.75;;;;;;;;;;10336339;28;20093;-69
2023/07/22 08:50:21;;;;;;;16.38;5.78;;;;;;;;;;10349218;28;20105;-69
2023/07/22 08:55:21;;;;;;;12.10;5.10;;;;;;;;;;10349277;28;20058;-69
2023/07/22 09:00:22;;;;;;;12.23;4.60;;;;;;;;;;10311350;28;20027;-70
2023/07/22 09:05:22;;;;;;;17.77;4.65;;;;;;;;;;10312970;28;20118;-68
2023/07/22 09:10:24;;;;;;;13.15;4.55;;;;;;;;;;10349004;28;20320;-68
2023/07/22 09:15:24;;;;;;;13.20;4.75;;;;;;;;;;10348646;28;20021;-68
2023/07/22 09:20:26;;;;;;;9.93;3.88;;;;;;;;;;10349186;28;20339;-68
2023/07/22 09:25:27;;;;;;;14.60;4.63;;;;;;;;;;10348434;28;20033;-68
2023/07/22 09:30:29;;;;;;;7.88;4.03;;;;;;;;;;10348476;28;20026;-70
2023/07/22 09:35:30;;;;;;;12.40;4.03;;;;;;;;;;10348433;28;20029;-69
2023/07/22 09:40:30;;;;;;;12.93;4.38;;;;;;;;;;10348389;28;20107;-68
2023/07/22 09:45:31;;;;;;;12.75;4.65;;;;;;;;;;10348563;28;20022;-69
2023/07/22 09:50:32;;;;;;;13.98;4.18;;;;;;;;;;10348245;28;20041;-68
2023/07/22 09:55:32;;;;;;;10.97;3.70;;;;;;;;;;10343578;28;20037;-69
2023/07/22 10:00:33;;;;;;;16.67;4.00;;;;;;;;;;10318289;28;20159;-69
2023/07/22 10:05:34;;;;;;;17.20;4.53;;;;;;;;;;10314603;28;20030;-68
2023/07/22 10:10:35;;;;;;;13.13;3.63;;;;;;;;;;10340989;28;20442;-68
2023/07/22 10:15:36;;;;;;;17.75;4.70;;;;;;;;;;10325228;28;20332;-68
2023/07/22 10:20:37;;;;;;;12.85;4.13;;;;;;;;;;10300918;28;20054;-68
2023/07/22 10:25:38;;;;;;;14.50;3.97;;;;;;;;;;10300786;28;20301;-69
2023/07/22 10:30:39;;;;;;;20.55;4.53;;;;;;;;;;10301842;28;20018;-69
2023/07/22 10:35:42;;;;;;;18.45;4.55;;;;;;;;;;10300413;28;20272;-69
2023/07/22 10:40:52;;;;;;;14.85;4.97;;;;;;;;;;10300145;28;20386;-69
2023/07/22 10:45:53;;;;;;;16.70;4.60;;;;;;;;;;10307725;28;20026;-68
2023/07/22 10:51:04;;;;;;;15.52;4.30;;;;;;;;;;10326194;28;20027;-68
2023/07/22 10:56:08;;;;;;;16.33;4.10;;;;;;;;;;10339501;28;20049;-69
2023/07/22 11:01:29;;;;;;;18.70;4.28;;;;;;;;;;10304730;28;20023;-68
2023/07/22 11:06:30;;;;;;;21.08;3.90;;;;;;;;;;10323627;28;20030;-69
2023/07/22 11:11:34;;;;;;;23.67;4.18;;;;;;;;;;10339037;28;20037;-69
2023/07/22 11:16:35;;;;;;;31.17;5.30;;;;;;;;;;10330020;28;20057;-69
2023/07/22 11:21:35;;;;;;;20.20;4.97;;;;;;;;;;10338739;28;20026;-68
2023/07/22 11:26:37;;;;;;;17.35;4.50;;;;;;;;;;10300070;28;20201;-69
2023/07/22 11:31:42;;;;;;;25.75;4.78;;;;;;;;;;10328963;28;20022;-69
2023/07/22 11:36:43;;;;;;;32.17;4.57;;;;;;;;;;10311735;28;20231;-68
2023/07/22 11:41:44;;;;;;;36.00;4.53;;;;;;;;;;10297790;28;20018;-69
2023/07/22 11:46:49;;;;;;;20.33;4.80;;;;;;;;;;10297629;28;20054;-68
2023/07/22 11:51:50;;;;;;;31.05;4.65;;;;;;;;;;10297167;28;20305;-69
2023/07/22 11:56:50;;;;;;;22.23;4.57;;;;;;;;;;10314856;28;20018;-69
2023/07/22 12:01:52;;;;;;;27.55;4.90;;;;;;;;;;10337326;28;20090;-69
2023/07/22 12:06:53;;;;;;;26.25;4.80;;;;;;;;;;10336976;28;20023;-69
2023/07/22 12:11:58;;;;;;;25.92;4.97;;;;;;;;;;10336818;28;20034;-69
2023/07/22 12:16:58;;;;;;;22.88;4.75;;;;;;;;;;10336459;28;20041;-68
2023/07/22 12:21:58;;;;;;;35.43;5.00;;;;;;;;;;10336754;28;20023;-69
2023/07/22 12:26:59;;;;;;;29.83;4.70;;;;;;;;;;10336541;28;20034;-67
2023/07/22 12:31:59;;;;;;;27.23;4.07;;;;;;;;;;10336507;28;20030;-68
2023/07/22 12:36:59;;;;;;;22.67;5.33;;;;;;;;;;10306004;28;20035;-68
2023/07/22 12:42:00;;;;;;;38.00;5.68;;;;;;;;;;10296163;28;20023;-68
2023/07/22 12:47:00;;;;;;;20.40;4.22;;;;;;;;;;10295882;28;20023;-68
2023/07/22 12:52:04;;;;;;;34.15;4.95;;;;;;;;;;10295737;28;20367;-68
2023/07/22 12:57:04;;;;;;;23.90;3.90;;;;;;;;;;10295762;28;20325;-68
2023/07/22 13:02:05;;;;;;;22.50;4.53;;;;;;;;;;10309021;28;20154;-69
2023/07/22 13:07:05;;;;;;;25.67;4.85;;;;;;;;;;10329004;28;20269;-69
2023/07/22 13:12:06;;;;;;;20.67;4.40;;;;;;;;;;10295292;28;20027;-68
2023/07/22 13:17:06;;;;;;;25.80;4.93;;;;;;;;;;10295336;28;20265;-68
2023/07/22 13:22:06;;;;;;;24.50;5.20;;;;;;;;;;10321514;28;20178;-69
2023/07/22 13:27:06;;;;;;;24.13;4.45;;;;;;;;;;10316988;28;20031;-69
2023/07/22 13:32:07;;;;;;;21.13;5.13;;;;;;;;;;10321109;28;20029;-69
2023/07/22 13:37:07;;;;;;;29.23;4.90;;;;;;;;;;10342588;28;20244;-69
2023/07/22 13:42:08;;;;;;;31.48;5.40;;;;;;;;;;10302654;28;20312;-69
2023/07/22 13:47:08;;;;;;;27.97;5.47;;;;;;;;;;10302229;28;20026;-69
2023/07/22 13:52:08;;;;;;;23.15;5.03;;;;;;;;;;10301784;28;20239;-70
2023/07/22 13:57:09;;;;;;;24.90;4.03;;;;;;;;;;10308515;28;20073;-67
2023/07/22 14:02:09;;;;;;;25.40;4.55;;;;;;;;;;10341920;28;20052;-69
2023/07/22 14:07:09;;;;;;;19.30;4.18;;;;;;;;;;10340238;28;20196;-69
2023/07/22 14:12:09;;;;;;;38.23;5.10;;;;;;;;;;10314849;28;20027;-68
2023/07/22 14:17:10;;;;;;;30.70;5.38;;;;;;;;;;10301140;28;20106;-69
2023/07/22 14:22:10;;;;;;;17.60;3.50;;;;;;;;;;10312087;28;20026;-69
2023/07/22 14:27:10;;;;;;;35.45;4.75;;;;;;;;;;10340927;28;20318;-68
2023/07/22 14:32:10;;;;;;;22.33;4.75;;;;;;;;;;10340946;28;20026;-68
2023/07/22 14:37:11;;;;;;;16.57;5.57;;;;;;;;;;10340481;28;20050;-69
2023/07/22 14:42:11;;;;;;;27.85;5.68;;;;;;;;;;10321563;28;20109;-69
2023/07/22 14:47:11;;;;;;;23.05;5.85;;;;;;;;;;10308880;28;20304;-68
2023/07/22 14:52:11;;;;;;;21.48;4.57;;;;;;;;;;10340086;28;20038;-69
2023/07/22 14:57:12;;;;;;;22.98;5.32;;;;;;;;;;10312755;28;20022;-69
2023/07/22 15:02:12;;;;;;;23.17;4.63;;;;;;;;;;10339208;28;20025;-68
2023/07/22 15:07:12;;;;;;;23.20;5.63;;;;;;;;;;10339180;28;20089;-69
2023/07/22 15:12:13;;;;;;;29.02;4.93;;;;;;;;;;10338920;28;20034;-69
2023/07/22 15:17:13;;;;;;;26.20;4.75;;;;;;;;;;10337946;28;20022;-69
2023/07/22 15:22:13;;;;;;;29.13;5.20;;;;;;;;;;10299918;28;20066;-69
2023/07/22 15:27:14;;;;;;;30.02;5.00;;;;;;;;;;10326936;28;20536;-68
2023/07/22 15:32:15;;;;;;;26.20;5.22;;;;;;;;;;10338252;28;20033;-69
2023/07/22 15:37:15;;;;;;;19.25;4.38;;;;;;;;;;10338008;28;20216;-68
2023/07/22 15:42:16;;;;;;;30.60;5.07;;;;;;;;;;10311889;28;20198;-68
2023/07/22 15:47:16;;;;;;;27.35;4.90;;;;;;;;;;10297787;28;20210;-69
2023/07/22 15:52:17;;;;;;;21.92;5.47;;;;;;;;;;10296779;28;20317;-68
2023/07/22 15:57:17;;;;;;;31.33;5.77;;;;;;;;;;10297443;28;20093;-68
2023/07/22 16:02:18;;;;;;;19.85;4.65;;;;;;;;;;10297068;28;20289;-67
2023/07/22 16:07:18;;;;;;;24.02;4.30;;;;;;;;;;10297152;28;20023;-69
2023/07/22 16:12:18;;;;;;;26.63;4.65;;;;;;;;;;10329867;28;20049;-69
2023/07/22 16:17:18;;;;;;;23.75;5.20;;;;;;;;;;10306052;28;20335;-68
2023/07/22 16:22:19;;;;;;;25.08;5.40;;;;;;;;;;10321412;28;20029;-68
2023/07/22 16:27:19;;;;;;;25.70;5.18;;;;;;;;;;10336450;28;20343;-68
2023/07/22 16:32:20;;;;;;;18.42;4.18;;;;;;;;;;10336378;28;20029;-68
2023/07/22 16:37:20;;;;;;;18.58;3.60;;;;;;;;;;10306852;28;20058;-68
2023/07/22 16:42:20;;;;;;;17.50;4.53;;;;;;;;;;10296036;28;20026;-67
2023/07/22 16:47:20;;;;;;;18.92;4.20;;;;;;;;;;10295945;28;20040;-68
2023/07/22 16:52:21;;;;;;;18.15;4.07;;;;;;;;;;10295689;28;20081;-69
2023/07/22 16:57:21;;;;;;;19.95;4.47;;;;;;;;;;10295564;28;20029;-69
2023/07/22 17:02:21;;;;;;;20.90;3.80;;;;;;;;;;10321490;28;20026;-69
2023/07/22 17:07:23;;;;;;;16.10;4.70;;;;;;;;;;10343836;28;20057;-68
2023/07/22 17:12:23;;;;;;;16.10;4.32;;;;;;;;;;10329503;28;20019;-69
2023/07/22 17:17:23;;;;;;;14.80;3.85;;;;;;;;;;10303476;28;20070;-69
2023/07/22 17:22:23;;;;;;;20.88;5.40;;;;;;;;;;10303321;28;20252;-69
2023/07/22 17:27:24;;;;;;;17.92;4.03;;;;;;;;;;10325329;28;20284;-69
2023/07/22 17:32:24;;;;;;;20.30;4.72;;;;;;;;;;10302568;28;20023;-68
2023/07/22 17:37:24;;;;;;;14.10;3.95;;;;;;;;;;10302153;28;20053;-68
2023/07/22 17:42:24;;;;;;;14.55;4.28;;;;;;;;;;10315913;28;20142;-68
2023/07/22 17:47:25;;;;;;;16.58;5.32;;;;;;;;;;10332364;28;20023;-69
2023/07/22 17:52:25;;;;;;;16.30;4.55;;;;;;;;;;10301122;28;20198;-68
2023/07/22 17:57:25;;;;;;;10.10;4.03;;;;;;;;;;10342072;28;20089;-69
2023/07/22 18:02:26;;;;;;;14.13;4.35;;;;;;;;;;10305885;28;20050;-68
2023/07/22 18:07:26;;;;;;;27.10;4.63;;;;;;;;;;10337425;28;20018;-68
2023/07/22 18:12:26;;;;;;;17.15;4.85;;;;;;;;;;10310241;28;20221;-69
2023/07/22 18:17:26;;;;;;;10.40;3.87;;;;;;;;;;10317874;28;20113;-68
2023/07/22 18:22:27;;;;;;;17.55;4.07;;;;;;;;;;10340776;28;20343;-68
2023/07/22 18:27:27;;;;;;;25.05;4.57;;;;;;;;;;10341170;28;20093;-67
2023/07/22 18:32:28;;;;;;;17.05;4.28;;;;;;;;;;10340434;28;20109;-68
2023/07/22 18:37:29;;;;;;;14.80;5.28;;;;;;;;;;10340039;28;20034;-68
2023/07/22 18:42:29;;;;;;;16.60;4.00;;;;;;;;;;10340675;28;20022;-68
2023/07/22 18:47:29;;;;;;;18.60;4.28;;;;;;;;;;10305508;28;20312;-68
2023/07/22 18:52:30;;;;;;;19.02;4.07;;;;;;;;;;10340035;28;20029;-69
2023/07/22 18:57:30;;;;;;;10.35;4.10;;;;;;;;;;10340118;28;20376;-69
2023/07/22 19:02:30;;;;;;;18.83;5.88;;;;;;;;;;10339620;28;20273;-69
2023/07/22 19:07:31;;;;;;;17.07;4.17;;;;;;;;;;10317411;28;20031;-69
2023/07/22 19:12:32;;;;;;;20.00;4.20;;;;;;;;;;10299299;28;20019;-68
2023/07/22 19:17:32;;;;;;;13.07;4.30;;;;;;;;;;10297694;28;20098;-69
2023/07/22 19:22:32;;;;;;;16.60;5.30;;;;;;;;;;10298539;28;20029;-68
2023/07/22 19:27:33;;;;;;;19.33;5.72;;;;;;;;;;10297498;28;20375;-68
2023/07/22 19:32:33;;;;;;;16.20;5.75;;;;;;;;;;10313261;28;20030;-68
2023/07/22 19:37:33;;;;;;;18.80;5.55;;;;;;;;;;10337949;28;20097;-69
2023/07/22 19:42:33;;;;;;;22.77;5.65;;;;;;;;;;10338101;28;20327;-68
2023/07/22 19:47:33;;;;;;;17.77;5.47;;;;;;;;;;10337719;28;20105;-73
2023/07/22 19:52:34;;;;;;;18.55;6.05;;;;;;;;;;10315427;28;20026;-71
2023/07/22 19:57:34;;;;;;;17.17;5.85;;;;;;;;;;10297919;28;20320;-69
2023/07/22 20:02:34;;;;;;;18.63;6.22;;;;;;;;;;10327717;28;20073;-68
2023/07/22 20:07:35;;;;;;;19.50;5.88;;;;;;;;;;10334663;28;20072;-69
2023/07/22 20:12:35;;;;;;;25.55;7.10;;;;;;;;;;10335122;28;20343;-69
2023/07/22 20:17:35;;;;;;;18.70;5.60;;;;;;;;;;10334493;28;20067;-69
2023/07/22 20:22:35;;;;;;;22.65;5.85;;;;;;;;;;10332788;28;20025;-70
2023/07/22 20:27:36;;;;;;;15.07;5.72;;;;;;;;;;10330395;28;20022;-70
2023/07/22 20:32:37;;;;;;;17.50;5.10;;;;;;;;;;10333760;28;20034;-69
2023/07/22 20:37:37;;;;;;;12.48;4.43;;;;;;;;;;10312966;23;20141;-80
2023/07/22 20:42:43;;;;;;;12.57;4.83;;;;;;;;;;10282205;28;20113;-82
2023/07/22 20:47:43;;;;;;;13.27;4.60;;;;;;;;;;10261580;28;20058;-80
2023/07/22 20:52:44;;;;;;;9.02;4.40;;;;;;;;;;10288274;28;20069;-80
2023/07/22 20:57:44;;;;;;;31.70;5.67;;;;;;;;;;10292087;28;20054;-81
2023/07/22 21:02:46;;;;;;;14.63;5.18;;;;;;;;;;10280853;28;20081;-86
2023/07/22 21:07:48;;;;;;;8.70;4.30;;;;;;;;;;10297754;28;20483;-78
2023/07/22 21:12:49;;;;;;;12.88;5.45;;;;;;;;;;10281858;28;20066;-79
2023/07/22 21:17:49;;;;;;;14.70;5.53;;;;;;;;;;10279933;28;20583;-80
2023/07/22 21:22:50;;;;;;;12.53;4.37;;;;;;;;;;10286008;28;20034;-84
2023/07/22 21:27:58;;;;;;;15.20;5.97;;;;;;;;;;10301722;28;20058;-82
2023/07/22 21:33:00;;;;;;;12.85;5.07;;;;;;;;;;10283643;28;20046;-77
2023/07/22 21:38:01;;;;;;;15.43;5.10;;;;;;;;;;10283873;28;20485;-79
2023/07/22 21:43:02;;;;;;;16.80;4.97;;;;;;;;;;10299106;28;20034;-80
2023/07/22 21:48:03;;;;;;;11.90;4.57;;;;;;;;;;10275293;28;20042;-79
2023/07/22 21:58:41;;;;;;;10.88;5.00;;;;;;;;;;10302812;28;20506;-70
2023/07/22 22:03:42;;;;;;;10.87;4.40;;;;;;;;;;10283498;28;20026;-79
2023/07/22 22:08:44;;;;;;;14.02;4.80;;;;;;;;;;10291034;28;20041;-79
2023/07/22 22:13:46;;;;;;;12.60;5.10;;;;;;;;;;10295930;28;20047;-79
2023/07/22 22:18:46;;;;;;;15.93;4.68;;;;;;;;;;10291271;28;20109;-76
2023/07/22 22:23:46;;;;;;;21.17;6.50;;;;;;;;;;10299160;28;20025;-79
2023/07/22 22:29:10;;;;;;;14.80;5.40;;;;;;;;;;10295451;28;20062;-73
2023/07/22 22:34:11;;;;;;;12.45;5.03;;;;;;;;;;10296905;28;20058;-79
2023/07/22 22:39:11;;;;;;;12.15;5.25;;;;;;;;;;10295359;28;20019;-83
2023/07/22 22:44:11;;;;;;;14.23;4.72;;;;;;;;;;10252664;28;20133;-79
2023/07/22 22:49:13;;;;;;;14.98;5.03;;;;;;;;;;10270279;28;20031;-70
2023/07/22 22:54:13;;;;;;;15.02;5.10;;;;;;;;;;10271114;28;20011;-78
2023/07/22 22:59:14;;;;;;;13.93;5.63;;;;;;;;;;10305054;28;20027;-78
2023/07/22 23:04:14;;;;;;;20.40;5.63;;;;;;;;;;10285602;28;20113;-80
2023/07/22 23:09:15;;;;;;;15.37;5.03;;;;;;;;;;10310276;23;20089;-70
2023/07/22 23:14:15;;;;;;;11.55;4.78;;;;;;;;;;10336333;28;20114;-69
2023/07/22 23:19:15;;;;;;;14.15;4.95;;;;;;;;;;10336826;28;20322;-70
2023/07/22 23:24:15;;;;;;;13.73;5.15;;;;;;;;;;10337112;28;20046;-69
2023/07/22 23:29:16;;;;;;;13.18;5.40;;;;;;;;;;10371230;28;20272;-70
2023/07/22 23:34:16;;;;;;;12.30;5.82;;;;;;;;;;10336951;28;20309;-69
2023/07/22 23:39:16;;;;;;;14.50;5.68;;;;;;;;;;10336847;28;20022;-69
2023/07/22 23:44:16;;;;;;;13.10;5.38;;;;;;;;;;10336455;28;20022;-70
2023/07/22 23:49:17;;;;;;;15.38;4.88;;;;;;;;;;10336420;28;20022;-70
2023/07/22 23:54:17;;;;;;;14.23;5.07;;;;;;;;;;10334511;28;20236;-70
2023/07/22 23:59:17;;;;;;;13.07;5.28;;;;;;;;;;10335960;28;20021;-70
